sensor_id;sensor_type;location;lat;lon;timestamp;P1;durP1;ratioP1;P2;durP2;ratioP2
75450;SDS011;64029;48.244;9.188;2022-11-20T00:00:47;6.53;;;5.50;;
75450;SDS011;64029;48.244;9.188;2022-11-20T00:03:46;6.50;;;4.60;;
75450;SDS011;64029;48.244;9.188;2022-11-20T00:06:17;4.70;;;4.20;;
75450;SDS011;64029;48.244;9.188;2022-11-20T00:08:57;6.23;;;4.40;;
75450;SDS011;64029;48.244;9.188;2022-11-20T00:11:31;7.77;;;4.40;;
75450;SDS011;64029;48.244;9.188;2022-11-20T00:13:59;6.67;;;3.67;;
75450;SDS011;64029;48.244;9.188;2022-11-20T00:16:28;6.80;;;4.17;;
75450;SDS011;64029;48.244;9.188;2022-11-20T00:18:57;3.97;;;3.67;;
75450;SDS011;64029;48.244;9.188;2022-11-20T00:21:25;4.83;;;4.40;;
75450;SDS011;64029;48.244;9.188;2022-11-20T00:23:54;7.37;;;5.00;;
75450;SDS011;64029;48.244;9.188;2022-11-20T00:26:23;9.70;;;6.40;;
75450;SDS011;64029;48.244;9.188;2022-11-20T00:28:51;9.23;;;6.33;;
75450;SDS011;64029;48.244;9.188;2022-11-20T00:31:19;7.13;;;6.40;;
75450;SDS011;64029;48.244;9.188;2022-11-20T00:33:46;8.63;;;6.77;;
75450;SDS011;64029;48.244;9.188;2022-11-20T00:36:14;11.97;;;8.60;;
75450;SDS011;64029;48.244;9.188;2022-11-20T00:38:44;10.83;;;6.80;;
75450;SDS011;64029;48.244;9.188;2022-11-20T00:41:12;6.93;;;5.53;;
75450;SDS011;64029;48.244;9.188;2022-11-20T00:43:41;5.27;;;4.67;;
75450;SDS011;64029;48.244;9.188;2022-11-20T00:46:08;8.70;;;3.57;;
75450;SDS011;64029;48.244;9.188;2022-11-20T00:48:38;4.03;;;3.63;;
75450;SDS011;64029;48.244;9.188;2022-11-20T00:51:05;7.53;;;3.00;;
75450;SDS011;64029;48.244;9.188;2022-11-20T00:53:32;3.10;;;2.70;;
75450;SDS011;64029;48.244;9.188;2022-11-20T00:56:02;3.10;;;2.67;;
75450;SDS011;64029;48.244;9.188;2022-11-20T00:58:32;3.50;;;2.67;;
75450;SDS011;64029;48.244;9.188;2022-11-20T01:01:00;6.20;;;2.90;;
75450;SDS011;64029;48.244;9.188;2022-11-20T01:03:27;3.73;;;2.70;;
75450;SDS011;64029;48.244;9.188;2022-11-20T01:05:59;3.40;;;2.50;;
75450;SDS011;64029;48.244;9.188;2022-11-20T01:08:29;3.50;;;2.60;;
75450;SDS011;64029;48.244;9.188;2022-11-20T01:10:58;2.53;;;2.33;;
75450;SDS011;64029;48.244;9.188;2022-11-20T01:13:28;6.33;;;4.20;;
75450;SDS011;64029;48.244;9.188;2022-11-20T01:16:04;4.63;;;2.60;;
75450;SDS011;64029;48.244;9.188;2022-11-20T01:18:32;3.90;;;2.80;;
75450;SDS011;64029;48.244;9.188;2022-11-20T01:21:00;3.60;;;2.83;;
75450;SDS011;64029;48.244;9.188;2022-11-20T01:23:30;3.90;;;2.70;;
75450;SDS011;64029;48.244;9.188;2022-11-20T01:25:59;3.17;;;2.87;;
75450;SDS011;64029;48.244;9.188;2022-11-20T01:28:28;3.60;;;2.80;;
75450;SDS011;64029;48.244;9.188;2022-11-20T01:30:55;3.30;;;3.00;;
75450;SDS011;64029;48.244;9.188;2022-11-20T01:33:22;5.00;;;3.17;;
75450;SDS011;64029;48.244;9.188;2022-11-20T01:35:50;3.47;;;2.77;;
75450;SDS011;64029;48.244;9.188;2022-11-20T01:38:17;3.80;;;3.17;;
75450;SDS011;64029;48.244;9.188;2022-11-20T01:40:45;2.57;;;2.37;;
75450;SDS011;64029;48.244;9.188;2022-11-20T01:43:15;3.23;;;2.60;;
75450;SDS011;64029;48.244;9.188;2022-11-20T01:46:00;3.43;;;2.80;;
75450;SDS011;64029;48.244;9.188;2022-11-20T01:48:30;3.97;;;2.90;;
75450;SDS011;64029;48.244;9.188;2022-11-20T01:51:02;4.67;;;3.40;;
75450;SDS011;64029;48.244;9.188;2022-11-20T01:53:31;3.70;;;2.97;;
75450;SDS011;64029;48.244;9.188;2022-11-20T01:56:01;4.60;;;3.40;;
75450;SDS011;64029;48.244;9.188;2022-11-20T01:58:34;2.97;;;2.70;;
75450;SDS011;64029;48.244;9.188;2022-11-20T02:01:03;3.10;;;2.80;;
75450;SDS011;64029;48.244;9.188;2022-11-20T02:03:30;4.90;;;2.70;;
75450;SDS011;64029;48.244;9.188;2022-11-20T02:06:01;5.07;;;2.90;;
75450;SDS011;64029;48.244;9.188;2022-11-20T02:08:34;3.70;;;2.97;;
75450;SDS011;64029;48.244;9.188;2022-11-20T02:11:02;3.70;;;2.90;;
75450;SDS011;64029;48.244;9.188;2022-11-20T02:13:29;6.43;;;3.40;;
75450;SDS011;64029;48.244;9.188;2022-11-20T02:16:14;4.00;;;2.73;;
75450;SDS011;64029;48.244;9.188;2022-11-20T02:18:43;4.23;;;3.30;;
75450;SDS011;64029;48.244;9.188;2022-11-20T02:21:18;8.30;;;2.90;;
75450;SDS011;64029;48.244;9.188;2022-11-20T02:24:08;5.10;;;2.97;;
75450;SDS011;64029;48.244;9.188;2022-11-20T02:26:42;3.90;;;3.10;;
75450;SDS011;64029;48.244;9.188;2022-11-20T02:29:14;4.00;;;2.93;;
75450;SDS011;64029;48.244;9.188;2022-11-20T02:31:43;3.53;;;3.23;;
75450;SDS011;64029;48.244;9.188;2022-11-20T02:34:11;5.27;;;2.83;;
75450;SDS011;64029;48.244;9.188;2022-11-20T02:36:38;6.53;;;3.77;;
75450;SDS011;64029;48.244;9.188;2022-11-20T02:39:09;3.80;;;3.40;;
75450;SDS011;64029;48.244;9.188;2022-11-20T02:41:37;3.80;;;2.70;;
75450;SDS011;64029;48.244;9.188;2022-11-20T02:44:05;5.40;;;3.70;;
75450;SDS011;64029;48.244;9.188;2022-11-20T02:46:32;4.13;;;3.13;;
75450;SDS011;64029;48.244;9.188;2022-11-20T02:49:00;4.37;;;2.77;;
75450;SDS011;64029;48.244;9.188;2022-11-20T02:51:28;3.50;;;2.93;;
75450;SDS011;64029;48.244;9.188;2022-11-20T02:53:55;5.50;;;3.80;;
75450;SDS011;64029;48.244;9.188;2022-11-20T02:56:24;5.40;;;3.20;;
75450;SDS011;64029;48.244;9.188;2022-11-20T02:58:51;6.07;;;3.30;;
75450;SDS011;64029;48.244;9.188;2022-11-20T03:01:18;3.93;;;3.30;;
75450;SDS011;64029;48.244;9.188;2022-11-20T03:03:45;5.33;;;3.33;;
75450;SDS011;64029;48.244;9.188;2022-11-20T03:06:13;6.20;;;2.83;;
75450;SDS011;64029;48.244;9.188;2022-11-20T03:08:40;6.03;;;2.70;;
75450;SDS011;64029;48.244;9.188;2022-11-20T03:11:07;5.20;;;3.20;;
75450;SDS011;64029;48.244;9.188;2022-11-20T03:13:36;3.73;;;2.90;;
75450;SDS011;64029;48.244;9.188;2022-11-20T03:16:07;4.20;;;3.37;;
75450;SDS011;64029;48.244;9.188;2022-11-20T03:18:35;3.73;;;2.87;;
75450;SDS011;64029;48.244;9.188;2022-11-20T03:21:02;3.13;;;2.83;;
75450;SDS011;64029;48.244;9.188;2022-11-20T03:23:29;6.00;;;3.90;;
75450;SDS011;64029;48.244;9.188;2022-11-20T03:26:06;4.60;;;3.27;;
75450;SDS011;64029;48.244;9.188;2022-11-20T03:28:35;3.27;;;2.80;;
75450;SDS011;64029;48.244;9.188;2022-11-20T03:31:06;5.73;;;3.37;;
75450;SDS011;64029;48.244;9.188;2022-11-20T03:33:34;3.67;;;3.33;;
75450;SDS011;64029;48.244;9.188;2022-11-20T03:36:01;4.33;;;3.90;;
75450;SDS011;64029;48.244;9.188;2022-11-20T03:38:29;3.30;;;2.90;;
75450;SDS011;64029;48.244;9.188;2022-11-20T03:40:58;5.00;;;2.80;;
75450;SDS011;64029;48.244;9.188;2022-11-20T03:43:26;4.10;;;2.90;;
75450;SDS011;64029;48.244;9.188;2022-11-20T03:45:54;4.17;;;3.17;;
75450;SDS011;64029;48.244;9.188;2022-11-20T03:48:21;3.50;;;2.53;;
75450;SDS011;64029;48.244;9.188;2022-11-20T03:50:48;3.30;;;2.80;;
75450;SDS011;64029;48.244;9.188;2022-11-20T03:53:14;3.67;;;2.27;;
75450;SDS011;64029;48.244;9.188;2022-11-20T03:55:42;2.50;;;2.23;;
75450;SDS011;64029;48.244;9.188;2022-11-20T03:58:09;2.20;;;2.00;;
75450;SDS011;64029;48.244;9.188;2022-11-20T04:00:36;3.23;;;2.70;;
75450;SDS011;64029;48.244;9.188;2022-11-20T04:03:04;3.50;;;2.63;;
75450;SDS011;64029;48.244;9.188;2022-11-20T04:05:32;2.70;;;2.50;;
75450;SDS011;64029;48.244;9.188;2022-11-20T04:07:59;3.20;;;2.60;;
75450;SDS011;64029;48.244;9.188;2022-11-20T04:10:26;3.73;;;3.03;;
75450;SDS011;64029;48.244;9.188;2022-11-20T04:12:54;5.33;;;3.23;;
75450;SDS011;64029;48.244;9.188;2022-11-20T04:15:21;5.97;;;3.57;;
75450;SDS011;64029;48.244;9.188;2022-11-20T04:17:48;6.20;;;3.30;;
75450;SDS011;64029;48.244;9.188;2022-11-20T04:20:16;3.50;;;2.93;;
75450;SDS011;64029;48.244;9.188;2022-11-20T04:22:43;3.50;;;3.20;;
75450;SDS011;64029;48.244;9.188;2022-11-20T04:25:10;6.70;;;3.60;;
75450;SDS011;64029;48.244;9.188;2022-11-20T04:27:37;4.90;;;3.53;;
75450;SDS011;64029;48.244;9.188;2022-11-20T04:30:04;3.20;;;2.83;;
75450;SDS011;64029;48.244;9.188;2022-11-20T04:32:31;5.50;;;3.37;;
75450;SDS011;64029;48.244;9.188;2022-11-20T04:34:58;5.83;;;3.43;;
75450;SDS011;64029;48.244;9.188;2022-11-20T04:37:27;3.50;;;2.97;;
75450;SDS011;64029;48.244;9.188;2022-11-20T04:39:53;3.00;;;2.70;;
75450;SDS011;64029;48.244;9.188;2022-11-20T04:42:20;6.40;;;3.07;;
75450;SDS011;64029;48.244;9.188;2022-11-20T04:44:56;4.43;;;2.60;;
75450;SDS011;64029;48.244;9.188;2022-11-20T04:47:23;3.80;;;2.87;;
75450;SDS011;64029;48.244;9.188;2022-11-20T04:49:50;3.10;;;2.83;;
75450;SDS011;64029;48.244;9.188;2022-11-20T04:52:17;4.20;;;3.37;;
75450;SDS011;64029;48.244;9.188;2022-11-20T04:54:45;3.83;;;2.67;;
75450;SDS011;64029;48.244;9.188;2022-11-20T04:57:13;5.50;;;3.73;;
75450;SDS011;64029;48.244;9.188;2022-11-20T04:59:40;4.83;;;3.50;;
75450;SDS011;64029;48.244;9.188;2022-11-20T05:02:08;3.90;;;3.20;;
75450;SDS011;64029;48.244;9.188;2022-11-20T05:04:35;4.10;;;3.63;;
75450;SDS011;64029;48.244;9.188;2022-11-20T05:07:01;3.63;;;2.90;;
75450;SDS011;64029;48.244;9.188;2022-11-20T05:09:29;3.53;;;3.23;;
75450;SDS011;64029;48.244;9.188;2022-11-20T05:11:57;4.13;;;3.63;;
75450;SDS011;64029;48.244;9.188;2022-11-20T05:14:24;4.87;;;3.03;;
75450;SDS011;64029;48.244;9.188;2022-11-20T05:16:51;3.53;;;3.23;;
75450;SDS011;64029;48.244;9.188;2022-11-20T05:19:18;3.60;;;3.30;;
75450;SDS011;64029;48.244;9.188;2022-11-20T05:21:45;4.97;;;3.53;;
75450;SDS011;64029;48.244;9.188;2022-11-20T05:24:12;3.80;;;3.40;;
75450;SDS011;64029;48.244;9.188;2022-11-20T05:26:39;6.00;;;3.87;;
75450;SDS011;64029;48.244;9.188;2022-11-20T05:29:09;4.63;;;3.43;;
75450;SDS011;64029;48.244;9.188;2022-11-20T05:31:36;6.27;;;3.87;;
75450;SDS011;64029;48.244;9.188;2022-11-20T05:34:04;4.63;;;3.50;;
75450;SDS011;64029;48.244;9.188;2022-11-20T05:36:32;8.63;;;3.97;;
75450;SDS011;64029;48.244;9.188;2022-11-20T05:38:59;4.53;;;4.03;;
75450;SDS011;64029;48.244;9.188;2022-11-20T05:41:26;4.70;;;3.77;;
75450;SDS011;64029;48.244;9.188;2022-11-20T05:43:53;4.13;;;3.43;;
75450;SDS011;64029;48.244;9.188;2022-11-20T05:46:23;3.67;;;3.27;;
75450;SDS011;64029;48.244;9.188;2022-11-20T05:48:50;4.67;;;3.40;;
75450;SDS011;64029;48.244;9.188;2022-11-20T05:51:17;5.30;;;4.00;;
75450;SDS011;64029;48.244;9.188;2022-11-20T05:53:45;4.33;;;3.50;;
75450;SDS011;64029;48.244;9.188;2022-11-20T05:56:13;4.30;;;3.80;;
75450;SDS011;64029;48.244;9.188;2022-11-20T05:58:42;3.93;;;3.57;;
75450;SDS011;64029;48.244;9.188;2022-11-20T06:01:10;4.20;;;3.30;;
75450;SDS011;64029;48.244;9.188;2022-11-20T06:03:40;4.40;;;3.80;;
75450;SDS011;64029;48.244;9.188;2022-11-20T06:06:10;9.53;;;3.20;;
75450;SDS011;64029;48.244;9.188;2022-11-20T06:08:38;3.40;;;3.10;;
75450;SDS011;64029;48.244;9.188;2022-11-20T06:11:05;4.13;;;3.73;;
75450;SDS011;64029;48.244;9.188;2022-11-20T06:13:33;4.60;;;3.70;;
75450;SDS011;64029;48.244;9.188;2022-11-20T06:16:01;4.03;;;3.60;;
75450;SDS011;64029;48.244;9.188;2022-11-20T06:18:28;5.93;;;4.17;;
75450;SDS011;64029;48.244;9.188;2022-11-20T06:21:00;3.20;;;2.90;;
75450;SDS011;64029;48.244;9.188;2022-11-20T06:23:29;5.30;;;3.40;;
75450;SDS011;64029;48.244;9.188;2022-11-20T06:25:57;4.03;;;3.40;;
75450;SDS011;64029;48.244;9.188;2022-11-20T06:28:27;4.17;;;3.77;;
75450;SDS011;64029;48.244;9.188;2022-11-20T06:30:54;5.53;;;3.93;;
75450;SDS011;64029;48.244;9.188;2022-11-20T06:33:21;4.80;;;3.90;;
75450;SDS011;64029;48.244;9.188;2022-11-20T06:35:47;6.43;;;3.40;;
75450;SDS011;64029;48.244;9.188;2022-11-20T06:38:16;4.83;;;3.63;;
75450;SDS011;64029;48.244;9.188;2022-11-20T06:40:42;4.60;;;3.50;;
75450;SDS011;64029;48.244;9.188;2022-11-20T06:43:10;5.87;;;4.30;;
75450;SDS011;64029;48.244;9.188;2022-11-20T06:45:37;6.13;;;4.43;;
75450;SDS011;64029;48.244;9.188;2022-11-20T06:48:04;7.07;;;4.83;;
75450;SDS011;64029;48.244;9.188;2022-11-20T06:50:31;5.97;;;4.63;;
75450;SDS011;64029;48.244;9.188;2022-11-20T06:53:00;5.40;;;4.80;;
75450;SDS011;64029;48.244;9.188;2022-11-20T06:55:28;7.37;;;4.60;;
75450;SDS011;64029;48.244;9.188;2022-11-20T06:57:55;6.83;;;5.33;;
75450;SDS011;64029;48.244;9.188;2022-11-20T07:00:22;7.80;;;6.30;;
75450;SDS011;64029;48.244;9.188;2022-11-20T07:02:49;6.40;;;4.73;;
75450;SDS011;64029;48.244;9.188;2022-11-20T07:05:16;7.37;;;5.50;;
75450;SDS011;64029;48.244;9.188;2022-11-20T07:07:43;7.20;;;4.93;;
75450;SDS011;64029;48.244;9.188;2022-11-20T07:10:10;6.47;;;5.87;;
75450;SDS011;64029;48.244;9.188;2022-11-20T07:12:39;8.50;;;5.87;;
75450;SDS011;64029;48.244;9.188;2022-11-20T07:15:06;11.03;;;7.73;;
75450;SDS011;64029;48.244;9.188;2022-11-20T07:17:33;10.30;;;8.00;;
75450;SDS011;64029;48.244;9.188;2022-11-20T07:20:00;12.20;;;8.90;;
75450;SDS011;64029;48.244;9.188;2022-11-20T07:22:27;12.63;;;9.37;;
75450;SDS011;64029;48.244;9.188;2022-11-20T07:24:53;10.87;;;8.87;;
75450;SDS011;64029;48.244;9.188;2022-11-20T07:27:20;10.63;;;8.20;;
75450;SDS011;64029;48.244;9.188;2022-11-20T07:29:48;9.03;;;7.77;;
75450;SDS011;64029;48.244;9.188;2022-11-20T07:32:15;9.63;;;7.10;;
75450;SDS011;64029;48.244;9.188;2022-11-20T07:34:42;7.50;;;6.70;;
75450;SDS011;64029;48.244;9.188;2022-11-20T07:37:09;11.20;;;7.50;;
75450;SDS011;64029;48.244;9.188;2022-11-20T07:39:36;8.10;;;6.47;;
75450;SDS011;64029;48.244;9.188;2022-11-20T07:42:03;8.07;;;5.90;;
75450;SDS011;64029;48.244;9.188;2022-11-20T07:44:29;8.20;;;6.57;;
75450;SDS011;64029;48.244;9.188;2022-11-20T07:46:58;9.63;;;6.87;;
75450;SDS011;64029;48.244;9.188;2022-11-20T07:49:25;8.00;;;6.17;;
75450;SDS011;64029;48.244;9.188;2022-11-20T07:51:51;6.90;;;6.20;;
75450;SDS011;64029;48.244;9.188;2022-11-20T07:54:19;11.60;;;8.47;;
75450;SDS011;64029;48.244;9.188;2022-11-20T07:56:46;16.20;;;9.37;;
75450;SDS011;64029;48.244;9.188;2022-11-20T07:59:13;11.23;;;8.90;;
75450;SDS011;64029;48.244;9.188;2022-11-20T08:01:41;14.27;;;10.00;;
75450;SDS011;64029;48.244;9.188;2022-11-20T08:04:09;15.50;;;9.87;;
75450;SDS011;64029;48.244;9.188;2022-11-20T08:06:36;11.20;;;8.40;;
75450;SDS011;64029;48.244;9.188;2022-11-20T08:09:03;11.53;;;6.90;;
75450;SDS011;64029;48.244;9.188;2022-11-20T08:11:30;12.70;;;6.60;;
75450;SDS011;64029;48.244;9.188;2022-11-20T08:14:10;8.97;;;6.70;;
75450;SDS011;64029;48.244;9.188;2022-11-20T08:16:37;6.90;;;5.00;;
75450;SDS011;64029;48.244;9.188;2022-11-20T08:19:04;10.33;;;5.23;;
75450;SDS011;64029;48.244;9.188;2022-11-20T08:21:32;8.20;;;5.37;;
75450;SDS011;64029;48.244;9.188;2022-11-20T08:24:00;7.90;;;4.90;;
75450;SDS011;64029;48.244;9.188;2022-11-20T08:26:27;6.53;;;5.40;;
75450;SDS011;64029;48.244;9.188;2022-11-20T08:28:55;6.50;;;5.10;;
75450;SDS011;64029;48.244;9.188;2022-11-20T08:31:22;7.63;;;5.20;;
75450;SDS011;64029;48.244;9.188;2022-11-20T08:33:50;11.37;;;5.37;;
75450;SDS011;64029;48.244;9.188;2022-11-20T08:36:17;10.60;;;6.53;;
75450;SDS011;64029;48.244;9.188;2022-11-20T08:38:47;7.20;;;5.63;;
75450;SDS011;64029;48.244;9.188;2022-11-20T08:41:15;6.30;;;4.73;;
75450;SDS011;64029;48.244;9.188;2022-11-20T08:43:53;7.87;;;5.67;;
75450;SDS011;64029;48.244;9.188;2022-11-20T08:46:21;7.90;;;5.40;;
75450;SDS011;64029;48.244;9.188;2022-11-20T08:48:49;7.17;;;5.20;;
75450;SDS011;64029;48.244;9.188;2022-11-20T08:51:16;7.80;;;5.70;;
75450;SDS011;64029;48.244;9.188;2022-11-20T08:53:43;9.00;;;6.37;;
75450;SDS011;64029;48.244;9.188;2022-11-20T08:56:11;7.20;;;5.47;;
75450;SDS011;64029;48.244;9.188;2022-11-20T08:58:38;5.13;;;4.33;;
75450;SDS011;64029;48.244;9.188;2022-11-20T09:01:05;9.00;;;4.73;;
75450;SDS011;64029;48.244;9.188;2022-11-20T09:03:32;8.20;;;5.50;;
75450;SDS011;64029;48.244;9.188;2022-11-20T09:05:59;10.20;;;6.83;;
75450;SDS011;64029;48.244;9.188;2022-11-20T09:08:27;9.27;;;6.43;;
75450;SDS011;64029;48.244;9.188;2022-11-20T09:10:54;11.83;;;6.17;;
75450;SDS011;64029;48.244;9.188;2022-11-20T09:13:24;8.70;;;5.17;;
75450;SDS011;64029;48.244;9.188;2022-11-20T09:15:53;10.00;;;6.43;;
75450;SDS011;64029;48.244;9.188;2022-11-20T09:18:20;7.37;;;4.70;;
75450;SDS011;64029;48.244;9.188;2022-11-20T09:20:47;7.23;;;5.40;;
75450;SDS011;64029;48.244;9.188;2022-11-20T09:23:14;7.47;;;5.17;;
75450;SDS011;64029;48.244;9.188;2022-11-20T09:25:42;5.50;;;4.37;;
75450;SDS011;64029;48.244;9.188;2022-11-20T09:28:09;6.57;;;4.10;;
75450;SDS011;64029;48.244;9.188;2022-11-20T09:30:37;5.77;;;4.13;;
75450;SDS011;64029;48.244;9.188;2022-11-20T09:33:04;8.10;;;4.90;;
75450;SDS011;64029;48.244;9.188;2022-11-20T09:35:31;7.50;;;4.87;;
75450;SDS011;64029;48.244;9.188;2022-11-20T09:38:03;7.13;;;5.57;;
75450;SDS011;64029;48.244;9.188;2022-11-20T09:40:31;13.87;;;5.00;;
75450;SDS011;64029;48.244;9.188;2022-11-20T09:43:01;5.83;;;4.17;;
75450;SDS011;64029;48.244;9.188;2022-11-20T09:45:39;6.00;;;4.10;;
75450;SDS011;64029;48.244;9.188;2022-11-20T09:48:36;5.60;;;3.97;;
75450;SDS011;64029;48.244;9.188;2022-11-20T09:51:31;5.20;;;4.03;;
75450;SDS011;64029;48.244;9.188;2022-11-20T09:54:10;4.53;;;3.87;;
75450;SDS011;64029;48.244;9.188;2022-11-20T09:56:42;6.10;;;4.63;;
75450;SDS011;64029;48.244;9.188;2022-11-20T09:59:15;5.43;;;4.50;;
75450;SDS011;64029;48.244;9.188;2022-11-20T10:01:58;6.23;;;4.53;;
75450;SDS011;64029;48.244;9.188;2022-11-20T10:04:28;5.77;;;4.83;;
75450;SDS011;64029;48.244;9.188;2022-11-20T10:07:00;6.93;;;5.47;;
75450;SDS011;64029;48.244;9.188;2022-11-20T10:09:31;17.73;;;8.90;;
75450;SDS011;64029;48.244;9.188;2022-11-20T10:12:06;11.50;;;6.67;;
75450;SDS011;64029;48.244;9.188;2022-11-20T10:14:42;11.30;;;6.50;;
75450;SDS011;64029;48.244;9.188;2022-11-20T10:17:43;13.30;;;7.40;;
75450;SDS011;64029;48.244;9.188;2022-11-20T10:20:23;8.83;;;6.27;;
75450;SDS011;64029;48.244;9.188;2022-11-20T10:23:00;7.60;;;5.40;;
75450;SDS011;64029;48.244;9.188;2022-11-20T10:25:37;7.00;;;4.20;;
75450;SDS011;64029;48.244;9.188;2022-11-20T10:31:01;10.27;;;5.00;;
75450;SDS011;64029;48.244;9.188;2022-11-20T10:33:33;8.33;;;5.00;;
75450;SDS011;64029;48.244;9.188;2022-11-20T10:36:05;4.80;;;3.10;;
75450;SDS011;64029;48.244;9.188;2022-11-20T10:38:37;5.30;;;3.57;;
75450;SDS011;64029;48.244;9.188;2022-11-20T10:41:07;3.40;;;2.90;;
75450;SDS011;64029;48.244;9.188;2022-11-20T10:43:52;3.80;;;2.90;;
75450;SDS011;64029;48.244;9.188;2022-11-20T10:46:26;4.17;;;2.40;;
75450;SDS011;64029;48.244;9.188;2022-11-20T10:49:03;2.63;;;2.43;;
75450;SDS011;64029;48.244;9.188;2022-11-20T10:51:37;5.47;;;3.23;;
75450;SDS011;64029;48.244;9.188;2022-11-20T10:54:23;3.93;;;2.80;;
75450;SDS011;64029;48.244;9.188;2022-11-20T10:57:00;4.00;;;3.43;;
75450;SDS011;64029;48.244;9.188;2022-11-20T11:02:32;2.73;;;1.70;;
75450;SDS011;64029;48.244;9.188;2022-11-20T11:05:04;1.90;;;1.70;;
75450;SDS011;64029;48.244;9.188;2022-11-20T11:07:39;2.23;;;1.90;;
75450;SDS011;64029;48.244;9.188;2022-11-20T11:10:13;1.77;;;1.60;;
75450;SDS011;64029;48.244;9.188;2022-11-20T11:12:43;2.33;;;1.87;;
75450;SDS011;64029;48.244;9.188;2022-11-20T11:15:12;3.57;;;2.00;;
75450;SDS011;64029;48.244;9.188;2022-11-20T11:17:51;2.23;;;1.80;;
75450;SDS011;64029;48.244;9.188;2022-11-20T11:20:20;1.50;;;1.40;;
75450;SDS011;64029;48.244;9.188;2022-11-20T11:22:49;1.93;;;1.73;;
75450;SDS011;64029;48.244;9.188;2022-11-20T11:25:18;1.50;;;1.40;;
75450;SDS011;64029;48.244;9.188;2022-11-20T11:27:47;1.73;;;1.53;;
75450;SDS011;64029;48.244;9.188;2022-11-20T11:30:16;2.43;;;1.67;;
75450;SDS011;64029;48.244;9.188;2022-11-20T11:32:44;1.40;;;1.20;;
75450;SDS011;64029;48.244;9.188;2022-11-20T11:35:23;3.10;;;1.73;;
75450;SDS011;64029;48.244;9.188;2022-11-20T11:37:52;2.40;;;1.97;;
75450;SDS011;64029;48.244;9.188;2022-11-20T11:40:28;2.30;;;1.50;;
75450;SDS011;64029;48.244;9.188;2022-11-20T11:42:58;2.10;;;1.40;;
75450;SDS011;64029;48.244;9.188;2022-11-20T11:45:27;1.90;;;1.63;;
75450;SDS011;64029;48.244;9.188;2022-11-20T11:47:53;2.70;;;1.97;;
75450;SDS011;64029;48.244;9.188;2022-11-20T11:50:24;2.67;;;2.10;;
75450;SDS011;64029;48.244;9.188;2022-11-20T11:52:56;5.67;;;3.47;;
75450;SDS011;64029;48.244;9.188;2022-11-20T11:55:33;3.10;;;2.47;;
75450;SDS011;64029;48.244;9.188;2022-11-20T11:58:09;4.10;;;2.83;;
75450;SDS011;64029;48.244;9.188;2022-11-20T12:00:45;5.80;;;2.37;;
75450;SDS011;64029;48.244;9.188;2022-11-20T12:03:18;3.63;;;2.87;;
75450;SDS011;64029;48.244;9.188;2022-11-20T12:05:54;5.17;;;2.57;;
75450;SDS011;64029;48.244;9.188;2022-11-20T12:08:25;4.30;;;2.73;;
75450;SDS011;64029;48.244;9.188;2022-11-20T12:10:56;3.50;;;2.37;;
75450;SDS011;64029;48.244;9.188;2022-11-20T12:13:32;2.57;;;2.27;;
75450;SDS011;64029;48.244;9.188;2022-11-20T12:16:08;4.90;;;2.70;;
75450;SDS011;64029;48.244;9.188;2022-11-20T12:18:39;2.80;;;2.13;;
75450;SDS011;64029;48.244;9.188;2022-11-20T12:21:12;5.40;;;2.40;;
75450;SDS011;64029;48.244;9.188;2022-11-20T12:23:55;2.43;;;1.90;;
75450;SDS011;64029;48.244;9.188;2022-11-20T12:26:39;3.20;;;1.90;;
75450;SDS011;64029;48.244;9.188;2022-11-20T12:29:18;2.03;;;1.80;;
75450;SDS011;64029;48.244;9.188;2022-11-20T12:32:00;3.57;;;2.00;;
75450;SDS011;64029;48.244;9.188;2022-11-20T12:35:02;1.93;;;1.50;;
75450;SDS011;64029;48.244;9.188;2022-11-20T12:37:39;2.47;;;2.17;;
75450;SDS011;64029;48.244;9.188;2022-11-20T12:40:15;5.30;;;1.77;;
75450;SDS011;64029;48.244;9.188;2022-11-20T12:42:56;3.27;;;1.97;;
75450;SDS011;64029;48.244;9.188;2022-11-20T12:46:07;2.03;;;1.93;;
75450;SDS011;64029;48.244;9.188;2022-11-20T12:48:41;6.50;;;2.07;;
75450;SDS011;64029;48.244;9.188;2022-11-20T12:54:29;6.93;;;1.70;;
75450;SDS011;64029;48.244;9.188;2022-11-20T12:57:18;2.00;;;1.50;;
75450;SDS011;64029;48.244;9.188;2022-11-20T12:59:55;1.63;;;1.53;;
75450;SDS011;64029;48.244;9.188;2022-11-20T13:02:41;3.13;;;1.73;;
75450;SDS011;64029;48.244;9.188;2022-11-20T13:05:29;1.83;;;1.63;;
75450;SDS011;64029;48.244;9.188;2022-11-20T13:08:03;3.93;;;1.40;;
75450;SDS011;64029;48.244;9.188;2022-11-20T13:10:37;2.17;;;1.40;;
75450;SDS011;64029;48.244;9.188;2022-11-20T13:13:13;1.13;;;1.03;;
75450;SDS011;64029;48.244;9.188;2022-11-20T13:15:50;1.30;;;1.10;;
75450;SDS011;64029;48.244;9.188;2022-11-20T13:18:22;2.23;;;1.50;;
75450;SDS011;64029;48.244;9.188;2022-11-20T13:20:49;1.80;;;1.30;;
75450;SDS011;64029;48.244;9.188;2022-11-20T13:23:23;1.63;;;1.53;;
75450;SDS011;64029;48.244;9.188;2022-11-20T13:26:03;1.60;;;1.43;;
75450;SDS011;64029;48.244;9.188;2022-11-20T13:28:32;1.97;;;1.60;;
75450;SDS011;64029;48.244;9.188;2022-11-20T13:31:01;1.73;;;1.63;;
75450;SDS011;64029;48.244;9.188;2022-11-20T13:33:29;1.60;;;1.33;;
75450;SDS011;64029;48.244;9.188;2022-11-20T13:35:58;1.60;;;1.50;;
75450;SDS011;64029;48.244;9.188;2022-11-20T13:38:26;1.47;;;1.37;;
75450;SDS011;64029;48.244;9.188;2022-11-20T13:40:55;1.50;;;1.40;;
75450;SDS011;64029;48.244;9.188;2022-11-20T13:43:28;1.40;;;1.30;;
75450;SDS011;64029;48.244;9.188;2022-11-20T13:46:01;1.33;;;1.23;;
75450;SDS011;64029;48.244;9.188;2022-11-20T13:48:30;1.77;;;1.30;;
75450;SDS011;64029;48.244;9.188;2022-11-20T13:51:07;1.57;;;1.47;;
75450;SDS011;64029;48.244;9.188;2022-11-20T13:53:46;1.47;;;1.30;;
75450;SDS011;64029;48.244;9.188;2022-11-20T13:56:28;1.80;;;1.50;;
75450;SDS011;64029;48.244;9.188;2022-11-20T13:59:06;1.60;;;1.27;;
75450;SDS011;64029;48.244;9.188;2022-11-20T14:01:38;2.47;;;1.80;;
75450;SDS011;64029;48.244;9.188;2022-11-20T14:04:06;1.20;;;1.10;;
75450;SDS011;64029;48.244;9.188;2022-11-20T14:06:38;2.40;;;1.50;;
75450;SDS011;64029;48.244;9.188;2022-11-20T14:09:10;5.00;;;1.50;;
75450;SDS011;64029;48.244;9.188;2022-11-20T14:11:45;3.27;;;1.70;;
75450;SDS011;64029;48.244;9.188;2022-11-20T14:14:15;1.80;;;1.47;;
75450;SDS011;64029;48.244;9.188;2022-11-20T14:16:44;2.83;;;1.60;;
75450;SDS011;64029;48.244;9.188;2022-11-20T14:22:07;3.50;;;3.20;;
75450;SDS011;64029;48.244;9.188;2022-11-20T14:24:36;2.60;;;2.30;;
75450;SDS011;64029;48.244;9.188;2022-11-20T14:27:03;3.20;;;2.17;;
75450;SDS011;64029;48.244;9.188;2022-11-20T14:29:34;3.20;;;2.80;;
75450;SDS011;64029;48.244;9.188;2022-11-20T14:32:03;3.63;;;2.70;;
75450;SDS011;64029;48.244;9.188;2022-11-20T14:34:31;5.60;;;3.30;;
75450;SDS011;64029;48.244;9.188;2022-11-20T14:37:00;6.50;;;4.60;;
75450;SDS011;64029;48.244;9.188;2022-11-20T14:39:30;7.50;;;3.83;;
75450;SDS011;64029;48.244;9.188;2022-11-20T14:41:59;5.57;;;3.10;;
75450;SDS011;64029;48.244;9.188;2022-11-20T14:44:27;4.17;;;2.67;;
75450;SDS011;64029;48.244;9.188;2022-11-20T14:46:59;4.40;;;2.40;;
75450;SDS011;64029;48.244;9.188;2022-11-20T14:49:28;4.93;;;2.40;;
75450;SDS011;64029;48.244;9.188;2022-11-20T14:52:02;1.60;;;1.50;;
75450;SDS011;64029;48.244;9.188;2022-11-20T14:54:42;2.00;;;1.80;;
75450;SDS011;64029;48.244;9.188;2022-11-20T14:57:20;1.80;;;1.70;;
75450;SDS011;64029;48.244;9.188;2022-11-20T14:59:49;2.63;;;1.80;;
75450;SDS011;64029;48.244;9.188;2022-11-20T15:02:18;1.30;;;1.20;;
75450;SDS011;64029;48.244;9.188;2022-11-20T15:04:46;2.13;;;1.77;;
75450;SDS011;64029;48.244;9.188;2022-11-20T15:07:23;6.57;;;1.60;;
75450;SDS011;64029;48.244;9.188;2022-11-20T15:10:00;6.83;;;1.60;;
75450;SDS011;64029;48.244;9.188;2022-11-20T15:12:29;1.53;;;1.10;;
75450;SDS011;64029;48.244;9.188;2022-11-20T15:14:57;1.50;;;1.13;;
75450;SDS011;64029;48.244;9.188;2022-11-20T15:17:25;2.83;;;1.50;;